createdAt,value
2023-02-09T00:01:06.385Z,33.20
2023-02-09T00:03:33.756Z,29.80
2023-02-09T00:06:01.843Z,27.40
2023-02-09T00:08:29.547Z,28.75
2023-02-09T00:10:56.844Z,30.38
2023-02-09T00:13:24.417Z,29.52
2023-02-09T00:15:55.540Z,28.45
2023-02-09T00:18:23.577Z,26.70
2023-02-09T00:21:00.982Z,28.88
2023-02-09T00:23:29.536Z,29.52
2023-02-09T00:25:59.246Z,29.23
2023-02-09T00:28:26.689Z,32.60
2023-02-09T00:30:53.991Z,34.42
2023-02-09T00:33:21.473Z,35.45
2023-02-09T00:35:48.769Z,29.08
2023-02-09T00:38:16.281Z,33.08
2023-02-09T00:40:43.789Z,30.52
2023-02-09T00:43:11.907Z,27.38
2023-02-09T00:45:39.216Z,29.38
2023-02-09T00:48:06.627Z,31.02
2023-02-09T00:50:33.983Z,30.55
2023-02-09T00:53:01.258Z,31.63
2023-02-09T00:55:28.487Z,32.33
2023-02-09T00:57:55.795Z,25.83
2023-02-09T01:00:23.093Z,30.20
2023-02-09T01:02:50.300Z,31.02
2023-02-09T01:05:17.589Z,29.50
2023-02-09T01:07:45.185Z,28.13
2023-02-09T01:10:12.413Z,29.25
2023-02-09T01:12:40.962Z,30.60
2023-02-09T01:15:08.842Z,29.33
2023-02-09T01:17:36.252Z,29.63
2023-02-09T01:20:03.992Z,32.22
2023-02-09T01:22:31.368Z,30.63
2023-02-09T01:24:58.648Z,27.90
2023-02-09T01:27:25.896Z,24.38
2023-02-09T01:29:53.110Z,23.40
2023-02-09T01:32:20.481Z,30.98
2023-02-09T01:34:50.847Z,26.20
2023-02-09T01:37:18.078Z,24.35
2023-02-09T01:39:45.464Z,29.55
2023-02-09T01:42:15.462Z,28.40
2023-02-09T01:44:42.695Z,27.10
2023-02-09T01:47:20.355Z,23.95
2023-02-09T01:49:48.841Z,25.77
2023-02-09T01:52:17.904Z,28.10
2023-02-09T01:54:49.092Z,27.77
2023-02-09T01:57:21.424Z,30.20
2023-02-09T01:59:51.612Z,25.40
2023-02-09T02:02:19.097Z,28.10
2023-02-09T02:04:46.457Z,24.63
2023-02-09T02:07:33.967Z,27.67
2023-02-09T02:10:02.061Z,26.85
2023-02-09T02:12:30.008Z,26.85
2023-02-09T02:14:57.257Z,28.95
2023-02-09T02:17:39.811Z,28.08
2023-02-09T02:20:22.317Z,25.25
2023-02-09T02:22:55.429Z,30.33
2023-02-09T02:25:28.839Z,29.50
2023-02-09T02:28:15.110Z,24.02
2023-02-09T02:30:42.468Z,24.23
2023-02-09T02:33:12.824Z,26.50
2023-02-09T02:36:01.932Z,28.75
2023-02-09T02:38:29.154Z,24.10
2023-02-09T02:41:09.942Z,24.15
2023-02-09T02:43:37.241Z,26.05
2023-02-09T02:46:06.442Z,25.55
2023-02-09T02:48:36.165Z,25.50
2023-02-09T02:51:06.015Z,23.65
2023-02-09T02:53:34.875Z,26.83
2023-02-09T02:56:22.401Z,28.05
2023-02-09T02:58:51.740Z,26.42
2023-02-09T03:01:22.083Z,29.00
2023-02-09T03:03:49.456Z,28.42
2023-02-09T03:06:18.033Z,25.48
2023-02-09T03:08:49.812Z,30.88
2023-02-09T03:11:17.850Z,28.35
2023-02-09T03:13:51.885Z,26.83
2023-02-09T03:16:40.780Z,27.48
2023-02-09T03:19:11.143Z,25.95
2023-02-09T03:21:38.354Z,23.52
2023-02-09T03:24:07.788Z,26.15
2023-02-09T03:26:40.041Z,23.98
2023-02-09T03:29:09.351Z,25.85
2023-02-09T03:31:38.274Z,26.25
2023-02-09T03:34:06.325Z,23.98
2023-02-09T03:36:34.840Z,25.60
2023-02-09T03:39:02.872Z,29.08
2023-02-09T03:41:30.201Z,25.20
2023-02-09T03:44:16.220Z,20.75
2023-02-09T03:46:43.855Z,21.92
2023-02-09T03:49:14.885Z,24.92
2023-02-09T03:51:43.022Z,23.98
2023-02-09T03:54:10.378Z,25.02
2023-02-09T03:56:37.726Z,19.05
2023-02-09T03:59:08.045Z,23.23
2023-02-09T04:01:35.372Z,21.20
2023-02-09T04:04:03.314Z,24.80
2023-02-09T04:06:31.805Z,28.70
2023-02-09T04:09:01.877Z,25.35
2023-02-09T04:11:29.236Z,25.95
2023-02-09T04:13:56.554Z,23.77
2023-02-09T04:16:23.858Z,27.35
2023-02-09T04:18:51.192Z,29.35
2023-02-09T04:21:18.439Z,25.35
2023-02-09T04:23:45.714Z,23.73
2023-02-09T04:26:13.245Z,25.15
2023-02-09T04:28:40.620Z,22.65
2023-02-09T04:31:08.145Z,25.70
2023-02-09T04:33:35.621Z,19.50
2023-02-09T04:36:03.135Z,23.90
2023-02-09T04:38:30.505Z,22.80
2023-02-09T04:40:59.650Z,24.20
2023-02-09T04:43:26.952Z,22.58
2023-02-09T04:45:54.559Z,23.40
2023-02-09T04:48:23.026Z,25.90
2023-02-09T04:50:50.861Z,28.63
2023-02-09T04:53:18.944Z,23.30
2023-02-09T04:55:46.949Z,27.38
2023-02-09T04:58:34.373Z,23.92
2023-02-09T05:01:01.652Z,24.33
2023-02-09T05:03:29.495Z,23.00
2023-02-09T05:05:57.595Z,23.35
2023-02-09T05:08:25.288Z,26.70
2023-02-09T05:10:53.296Z,23.80
2023-02-09T05:13:21.304Z,24.40
2023-02-09T05:15:48.957Z,20.95
2023-02-09T05:18:16.388Z,25.23
2023-02-09T05:20:44.836Z,23.13
2023-02-09T05:23:12.322Z,24.17
2023-02-09T05:25:39.806Z,22.50
2023-02-09T05:28:07.191Z,22.48
2023-02-09T05:30:34.566Z,20.50
2023-02-09T05:33:03.248Z,25.83
2023-02-09T05:35:30.517Z,22.58
2023-02-09T05:37:57.778Z,23.13
2023-02-09T05:40:25.134Z,22.73
2023-02-09T05:42:52.394Z,21.23
2023-02-09T05:45:19.753Z,23.45
2023-02-09T05:47:47.049Z,19.58
2023-02-09T05:50:14.590Z,26.35
2023-02-09T05:52:41.816Z,20.48
2023-02-09T05:55:09.212Z,22.85
2023-02-09T05:57:36.613Z,24.98
2023-02-09T06:00:05.344Z,18.20
2023-02-09T06:02:32.609Z,22.58
2023-02-09T06:04:59.933Z,22.23
2023-02-09T06:07:27.345Z,23.65
2023-02-09T06:09:54.596Z,22.50
2023-02-09T06:12:21.814Z,24.98
2023-02-09T06:14:49.041Z,22.27
2023-02-09T06:17:16.303Z,20.63
2023-02-09T06:19:43.601Z,22.00
2023-02-09T06:22:10.810Z,23.48
2023-02-09T06:24:38.095Z,22.27
2023-02-09T06:27:05.401Z,23.95
2023-02-09T06:29:32.684Z,21.33
2023-02-09T06:31:59.991Z,24.02
2023-02-09T06:34:27.348Z,22.58
2023-02-09T06:36:54.639Z,25.52
2023-02-09T06:39:22.089Z,23.25
2023-02-09T06:41:49.379Z,19.35
2023-02-09T06:44:16.673Z,21.65
2023-02-09T06:46:43.952Z,23.75
2023-02-09T06:49:11.200Z,24.63
2023-02-09T06:51:38.609Z,23.80
2023-02-09T06:54:05.952Z,25.05
2023-02-09T06:56:33.274Z,23.42
2023-02-09T06:59:00.502Z,19.55
2023-02-09T07:01:27.741Z,19.15
2023-02-09T07:03:55.179Z,21.52
2023-02-09T07:06:22.988Z,18.80
2023-02-09T07:08:50.940Z,22.60
2023-02-09T07:11:20.316Z,25.48
2023-02-09T07:13:47.999Z,17.40
2023-02-09T07:16:15.814Z,26.67
2023-02-09T07:18:43.230Z,22.77
2023-02-09T07:21:20.105Z,24.55
2023-02-09T07:23:48.131Z,23.25
2023-02-09T07:26:16.862Z,21.35
2023-02-09T07:28:44.544Z,22.88
2023-02-09T07:31:13.208Z,23.52
2023-02-09T07:33:40.617Z,20.45
2023-02-09T07:36:09.128Z,25.10
2023-02-09T07:38:36.718Z,21.70
2023-02-09T07:41:05.201Z,21.88
2023-02-09T07:43:33.002Z,22.23
2023-02-09T07:46:01.389Z,22.67
2023-02-09T07:48:28.934Z,22.23
2023-02-09T07:50:56.146Z,22.35
2023-02-09T07:53:23.567Z,24.35
2023-02-09T07:55:50.808Z,21.85
2023-02-09T07:58:19.988Z,24.45
2023-02-09T08:00:47.587Z,23.65
2023-02-09T08:03:16.808Z,25.50
2023-02-09T08:05:59.147Z,19.48
2023-02-09T08:08:26.440Z,23.00
2023-02-09T08:10:55.365Z,25.92
2023-02-09T08:13:23.083Z,22.25
2023-02-09T08:15:55.587Z,23.70
2023-02-09T08:18:25.393Z,24.58
2023-02-09T08:20:53.128Z,24.45
2023-02-09T08:23:23.130Z,21.92
2023-02-09T08:25:51.690Z,17.48
2023-02-09T08:28:31.786Z,26.77
2023-02-09T08:31:05.915Z,33.80
2023-02-09T08:33:33.467Z,23.67
2023-02-09T08:36:00.680Z,20.17
2023-02-09T08:38:27.948Z,20.73
2023-02-09T08:40:55.235Z,22.05
2023-02-09T08:43:22.583Z,23.77
2023-02-09T08:45:50.573Z,24.13
2023-02-09T08:48:18.128Z,23.17
2023-02-09T08:50:45.337Z,25.92
2023-02-09T08:53:12.680Z,26.73
2023-02-09T08:55:39.914Z,23.75
2023-02-09T08:58:07.825Z,23.23
2023-02-09T09:00:35.096Z,24.75
2023-02-09T09:03:04.952Z,23.85
2023-02-09T09:05:32.276Z,23.90
2023-02-09T09:07:59.599Z,21.15
2023-02-09T09:10:26.875Z,21.80
2023-02-09T09:12:54.105Z,17.65
2023-02-09T09:15:21.533Z,18.70
2023-02-09T09:17:48.803Z,22.33
2023-02-09T09:20:16.123Z,19.73
2023-02-09T09:22:43.443Z,19.88
2023-02-09T09:25:10.762Z,20.67
2023-02-09T09:27:37.994Z,18.13
2023-02-09T09:30:06.144Z,16.13
2023-02-09T09:32:33.509Z,20.77
2023-02-09T09:35:02.412Z,15.20
2023-02-09T09:37:29.667Z,16.40
2023-02-09T09:39:57.007Z,13.10
2023-02-09T09:42:44.112Z,13.45
2023-02-09T09:45:15.411Z,14.15
2023-02-09T09:47:43.953Z,16.10
2023-02-09T09:50:17.169Z,16.42
2023-02-09T09:52:47.653Z,13.52
2023-02-09T09:55:20.921Z,14.48
2023-02-09T09:57:48.614Z,14.50
2023-02-09T10:00:22.080Z,14.45
2023-02-09T10:02:49.611Z,13.63
2023-02-09T10:05:16.813Z,14.23
2023-02-09T10:07:45.175Z,14.95
2023-02-09T10:10:17.690Z,14.75
2023-02-09T10:12:48.676Z,15.57
2023-02-09T10:15:19.011Z,12.35
2023-02-09T10:17:46.347Z,12.68
2023-02-09T10:20:13.696Z,14.52
2023-02-09T10:22:44.122Z,11.95
2023-02-09T10:25:34.670Z,12.95
2023-02-09T10:28:06.542Z,15.35
2023-02-09T10:30:34.317Z,12.85
2023-02-09T10:33:02.746Z,14.63
2023-02-09T10:35:35.572Z,12.05
2023-02-09T10:38:04.175Z,14.13
2023-02-09T10:40:32.790Z,11.75
2023-02-09T10:43:01.488Z,12.60
2023-02-09T10:45:28.892Z,19.27
2023-02-09T10:48:03.542Z,13.90
2023-02-09T10:50:30.863Z,14.05
2023-02-09T10:52:59.777Z,12.32
2023-02-09T10:55:29.074Z,14.00
2023-02-09T10:58:07.528Z,15.98
2023-02-09T11:00:38.025Z,14.05
2023-02-09T11:03:14.280Z,11.73
2023-02-09T11:05:41.781Z,14.02
2023-02-09T11:08:24.964Z,18.83
2023-02-09T11:10:52.195Z,12.55
2023-02-09T11:13:22.053Z,12.60
2023-02-09T11:16:04.880Z,13.68
2023-02-09T11:18:33.968Z,12.57
2023-02-09T11:21:11.085Z,16.45
2023-02-09T11:23:56.507Z,14.48
2023-02-09T11:26:42.456Z,11.77
2023-02-09T11:29:21.875Z,17.85
2023-02-09T11:31:54.987Z,14.32
2023-02-09T11:34:31.453Z,15.43
2023-02-09T11:36:58.726Z,12.68
2023-02-09T11:39:31.082Z,11.52
2023-02-09T11:42:30.770Z,13.55
2023-02-09T11:45:01.255Z,13.23
2023-02-09T11:47:31.564Z,12.55
2023-02-09T11:50:02.212Z,16.58
2023-02-09T11:52:32.253Z,13.40
2023-02-09T11:55:02.641Z,13.48
2023-02-09T11:57:56.390Z,15.98
2023-02-09T12:00:27.230Z,15.73
2023-02-09T12:03:10.163Z,13.30
2023-02-09T12:05:38.480Z,13.95
2023-02-09T12:08:11.509Z,14.38
2023-02-09T12:10:48.058Z,13.23
2023-02-09T12:13:27.313Z,13.10
2023-02-09T12:15:57.256Z,11.65
2023-02-09T12:18:26.566Z,12.30
2023-02-09T12:20:55.911Z,15.75
2023-02-09T12:23:33.887Z,14.32
2023-02-09T12:26:13.272Z,13.43
2023-02-09T12:28:40.625Z,16.95
2023-02-09T12:31:10.478Z,15.77
2023-02-09T12:34:00.779Z,11.70
2023-02-09T12:36:29.670Z,13.05
2023-02-09T12:39:05.962Z,17.20
2023-02-09T12:41:41.109Z,15.43
2023-02-09T12:44:11.612Z,13.95
2023-02-09T12:46:45.009Z,14.15
2023-02-09T12:49:12.349Z,12.32
2023-02-09T12:51:54.996Z,13.98
2023-02-09T12:54:28.160Z,11.82
2023-02-09T12:56:55.580Z,14.60
2023-02-09T12:59:24.357Z,13.90
2023-02-09T13:02:13.672Z,14.10
2023-02-09T13:04:59.818Z,12.88
2023-02-09T13:07:33.177Z,11.55
2023-02-09T13:10:04.068Z,13.43
2023-02-09T13:12:36.001Z,14.73
2023-02-09T13:15:06.474Z,14.65
2023-02-09T13:17:41.752Z,15.40
2023-02-09T13:22:58.161Z,13.05
2023-02-09T13:25:36.462Z,15.43
2023-02-09T13:28:10.147Z,15.35
2023-02-09T13:30:37.918Z,13.77
2023-02-09T13:33:12.821Z,12.95
2023-02-09T13:35:51.007Z,11.35
2023-02-09T13:38:21.227Z,15.57
2023-02-09T13:40:50.309Z,12.77
2023-02-09T13:43:20.029Z,12.40
2023-02-09T13:45:51.525Z,13.23
2023-02-09T13:48:41.802Z,15.90
2023-02-09T13:51:16.487Z,13.40
2023-02-09T13:53:55.816Z,12.93
2023-02-09T13:56:23.327Z,14.70
2023-02-09T13:58:50.637Z,15.00
2023-02-09T14:01:20.107Z,16.88
2023-02-09T14:03:57.967Z,14.50
2023-02-09T14:06:52.300Z,14.80
2023-02-09T14:09:23.486Z,14.15
2023-02-09T14:11:55.509Z,13.45
2023-02-09T14:14:28.223Z,14.85
2023-02-09T14:17:24.779Z,14.40
2023-02-09T14:19:53.142Z,17.30
2023-02-09T14:22:35.556Z,18.52
2023-02-09T14:25:15.179Z,19.75
2023-02-09T14:27:46.976Z,16.05
2023-02-09T14:30:19.493Z,17.08
2023-02-09T14:32:48.489Z,16.58
2023-02-09T14:35:20.560Z,13.15
2023-02-09T14:37:49.023Z,14.13
2023-02-09T14:40:25.310Z,18.30
2023-02-09T14:42:56.862Z,16.17
2023-02-09T14:45:43.275Z,16.10
2023-02-09T14:48:19.838Z,16.38
2023-02-09T14:50:47.993Z,13.23
2023-02-09T14:53:16.012Z,15.13
2023-02-09T14:55:44.915Z,15.85
2023-02-09T14:58:22.272Z,13.13
2023-02-09T15:00:50.018Z,12.93
2023-02-09T15:03:17.347Z,14.40
2023-02-09T15:05:45.228Z,15.18
2023-02-09T15:08:16.222Z,15.32
2023-02-09T15:10:45.036Z,14.57
2023-02-09T15:13:13.491Z,12.95
2023-02-09T15:15:40.906Z,14.90
2023-02-09T15:18:08.210Z,12.90
2023-02-09T15:20:35.473Z,13.13
2023-02-09T15:23:02.724Z,17.00
2023-02-09T15:25:30.403Z,15.93
2023-02-09T15:27:58.795Z,15.00
2023-02-09T15:30:34.509Z,25.23
2023-02-09T15:33:02.091Z,17.30
2023-02-09T15:35:29.845Z,15.18
2023-02-09T15:37:59.549Z,16.33
2023-02-09T15:40:53.440Z,14.82
2023-02-09T15:43:40.544Z,17.40
2023-02-09T15:46:27.353Z,19.67
2023-02-09T15:48:54.708Z,13.35
2023-02-09T15:51:22.253Z,18.65
2023-02-09T15:53:49.850Z,16.85
2023-02-09T15:56:17.478Z,18.88
2023-02-09T15:58:45.538Z,16.27
2023-02-09T16:01:16.857Z,16.10
2023-02-09T16:03:44.415Z,17.95
2023-02-09T16:06:20.146Z,13.00
2023-02-09T16:08:47.922Z,15.38
2023-02-09T16:11:19.057Z,16.85
2023-02-09T16:13:46.270Z,14.43
2023-02-09T16:16:17.378Z,14.55
2023-02-09T16:18:45.538Z,20.08
2023-02-09T16:21:18.137Z,11.90
2023-02-09T16:23:46.320Z,14.18
2023-02-09T16:26:13.664Z,17.25
2023-02-09T16:28:40.924Z,13.65
2023-02-09T16:31:10.261Z,13.95
2023-02-09T16:33:39.292Z,13.52
2023-02-09T16:36:12.579Z,15.70
2023-02-09T16:38:40.056Z,15.77
2023-02-09T16:41:27.294Z,13.30
2023-02-09T16:43:54.559Z,17.45
2023-02-09T16:46:21.808Z,15.15
2023-02-09T16:48:49.111Z,16.48
2023-02-09T16:51:16.664Z,13.75
2023-02-09T16:53:45.539Z,15.50
2023-02-09T16:56:15.585Z,15.60
2023-02-09T16:58:43.563Z,15.68
2023-02-09T17:01:16.905Z,19.10
2023-02-09T17:03:45.808Z,18.77
2023-02-09T17:06:17.263Z,20.98
2023-02-09T17:08:44.559Z,21.33
2023-02-09T17:11:16.780Z,15.75
2023-02-09T17:13:44.221Z,15.63
2023-02-09T17:16:16.971Z,18.77
2023-02-09T17:18:44.982Z,16.10
2023-02-09T17:21:15.050Z,16.67
2023-02-09T17:23:43.604Z,15.65
2023-02-09T17:26:11.422Z,18.45
2023-02-09T17:28:38.825Z,18.98
2023-02-09T17:31:14.587Z,18.83
2023-02-09T17:33:41.918Z,22.45
2023-02-09T17:36:25.610Z,21.05
2023-02-09T17:38:54.426Z,20.20
2023-02-09T17:41:43.277Z,19.65
2023-02-09T17:47:03.797Z,17.02
2023-02-09T17:49:32.268Z,20.80
2023-02-09T17:51:59.583Z,15.73
2023-02-09T17:54:27.957Z,17.27
2023-02-09T17:56:55.281Z,16.83
2023-02-09T17:59:22.712Z,20.45
2023-02-09T18:01:50.565Z,19.88
2023-02-09T18:04:19.435Z,18.33
2023-02-09T18:06:46.714Z,18.35
2023-02-09T18:09:14.499Z,16.80
2023-02-09T18:11:47.880Z,14.80
2023-02-09T18:14:15.879Z,19.73
2023-02-09T18:16:43.553Z,18.88
2023-02-09T18:19:11.438Z,18.90
2023-02-09T18:21:39.225Z,17.52
2023-02-09T18:24:06.747Z,23.67
2023-02-09T18:26:34.703Z,24.15
2023-02-09T18:29:01.953Z,34.97
2023-02-09T18:31:29.214Z,27.00
2023-02-09T18:33:56.454Z,23.10
2023-02-09T18:36:23.689Z,29.27
2023-02-09T18:38:53.460Z,32.65
2023-02-09T18:41:20.811Z,36.08
2023-02-09T18:43:48.139Z,31.80
2023-02-09T18:46:15.783Z,29.08
2023-02-09T18:48:43.229Z,29.23
2023-02-09T18:51:11.003Z,29.23
2023-02-09T18:53:40.010Z,29.42
2023-02-09T18:56:07.435Z,26.52
2023-02-09T18:58:34.838Z,25.17
2023-02-09T19:01:02.125Z,28.27
2023-02-09T19:03:29.371Z,27.67
2023-02-09T19:05:56.614Z,26.67
2023-02-09T19:08:23.845Z,31.27
2023-02-09T19:10:51.085Z,28.92
2023-02-09T19:13:18.370Z,27.02
2023-02-09T19:15:46.174Z,27.20
2023-02-09T19:18:13.607Z,23.70
2023-02-09T19:20:40.842Z,22.08
2023-02-09T19:23:08.613Z,21.05
2023-02-09T19:25:35.995Z,19.90
2023-02-09T19:28:03.335Z,21.23
2023-02-09T19:30:30.777Z,20.70
2023-02-09T19:32:58.777Z,17.25
2023-02-09T19:35:26.078Z,20.48
2023-02-09T19:37:54.383Z,19.23
2023-02-09T19:40:27.752Z,17.15
2023-02-09T19:42:55.574Z,22.58
2023-02-09T19:45:23.136Z,17.92
2023-02-09T19:47:50.501Z,19.40
2023-02-09T19:50:17.851Z,22.90
2023-02-09T19:52:47.607Z,23.65
2023-02-09T19:55:15.472Z,21.60
2023-02-09T19:57:42.931Z,24.00
2023-02-09T20:00:14.674Z,20.88
2023-02-09T20:02:42.042Z,20.73
2023-02-09T20:05:09.570Z,21.45
2023-02-09T20:07:37.334Z,19.02
2023-02-09T20:10:04.937Z,23.17
2023-02-09T20:12:32.728Z,21.27
2023-02-09T20:14:59.995Z,18.70
2023-02-09T20:17:28.090Z,21.60
2023-02-09T20:19:55.371Z,20.13
2023-02-09T20:22:22.765Z,19.95
2023-02-09T20:24:50.053Z,20.60
2023-02-09T20:27:19.148Z,19.75
2023-02-09T20:29:46.389Z,22.17
2023-02-09T20:32:13.705Z,20.35
2023-02-09T20:34:41.083Z,21.35
2023-02-09T20:37:08.508Z,22.42
2023-02-09T20:39:35.727Z,25.45
2023-02-09T20:42:24.706Z,22.98
2023-02-09T20:45:10.824Z,23.10
2023-02-09T20:47:38.144Z,22.35
2023-02-09T20:50:05.574Z,19.63
2023-02-09T20:52:32.921Z,20.55
2023-02-09T20:55:00.184Z,20.35
2023-02-09T20:57:31.548Z,23.90
2023-02-09T20:59:59.299Z,20.42
2023-02-09T21:02:27.068Z,20.75
2023-02-09T21:04:57.932Z,21.92
2023-02-09T21:07:25.587Z,19.67
2023-02-09T21:09:54.953Z,21.75
2023-02-09T21:12:22.629Z,22.90
2023-02-09T21:14:50.851Z,20.88
2023-02-09T21:17:19.189Z,17.83
2023-02-09T21:19:46.478Z,22.35
2023-02-09T21:22:16.702Z,20.13
2023-02-09T21:24:45.080Z,24.38
2023-02-09T21:27:12.315Z,19.83
2023-02-09T21:29:39.626Z,18.17
2023-02-09T21:32:08.084Z,20.13
2023-02-09T21:34:35.934Z,20.92
2023-02-09T21:37:03.259Z,19.05
2023-02-09T21:39:31.558Z,20.88
2023-02-09T21:42:17.421Z,23.50
2023-02-09T21:44:44.619Z,21.02
2023-02-09T21:47:12.156Z,20.88
2023-02-09T21:49:39.394Z,24.55
2023-02-09T21:52:06.639Z,23.30
2023-02-09T21:54:34.085Z,23.33
2023-02-09T21:57:01.582Z,24.40
2023-02-09T21:59:29.063Z,22.58
2023-02-09T22:01:56.431Z,27.38
2023-02-09T22:04:23.837Z,29.77
2023-02-09T22:06:51.216Z,22.25
2023-02-09T22:09:20.308Z,23.23
2023-02-09T22:11:47.638Z,24.55
2023-02-09T22:14:14.934Z,22.55
2023-02-09T22:16:42.647Z,25.88
2023-02-09T22:19:10.270Z,28.02
2023-02-09T22:21:37.581Z,22.77
2023-02-09T22:24:04.957Z,27.58
2023-02-09T22:26:32.205Z,29.05
2023-02-09T22:28:59.436Z,26.75
2023-02-09T22:31:26.688Z,25.52
2023-02-09T22:33:54.447Z,28.23
2023-02-09T22:36:23.440Z,22.65
2023-02-09T22:38:50.891Z,27.08
2023-02-09T22:41:22.461Z,21.88
2023-02-09T22:43:50.494Z,25.50
2023-02-09T22:46:17.799Z,24.10
2023-02-09T22:48:45.228Z,22.00
2023-02-09T22:51:17.749Z,20.88
2023-02-09T22:53:45.399Z,20.35
2023-02-09T22:56:13.457Z,25.08
2023-02-09T22:58:40.788Z,23.17
2023-02-09T23:01:08.262Z,20.98
2023-02-09T23:03:35.736Z,25.90
2023-02-09T23:06:06.844Z,19.42
2023-02-09T23:08:34.194Z,21.98
2023-02-09T23:11:05.666Z,19.70
2023-02-09T23:13:33.563Z,20.67
2023-02-09T23:16:17.687Z,19.90
2023-02-09T23:18:47.972Z,21.00
2023-02-09T23:21:15.996Z,22.90
2023-02-09T23:23:43.313Z,22.77
2023-02-09T23:26:10.665Z,19.27
2023-02-09T23:28:38.051Z,22.10
2023-02-09T23:31:06.694Z,21.23
2023-02-09T23:33:34.277Z,22.95
2023-02-09T23:36:08.873Z,21.48
2023-02-09T23:38:36.559Z,23.80
2023-02-09T23:41:07.695Z,22.05
2023-02-09T23:43:35.415Z,19.10
2023-02-09T23:46:03.555Z,20.98
2023-02-09T23:48:30.982Z,19.90
2023-02-09T23:50:59.313Z,21.67
2023-02-09T23:53:27.213Z,19.80
2023-02-09T23:55:54.850Z,20.88
2023-02-09T23:58:22.168Z,20.95
